Sonic Adventure (DX): Boss Rankings

Records: Times | Rings | Scores | Races | Bosses | Freestyle
Leaders: Times | Rings | Scores | Races | Bosses | Freestyle | Overall
Rank Player Percent Points Date
1 Sonicspeedruner 98.7% 24 12-19-14
2 Gamepro011 96.9% 60 12-19-14
3 Austinf 93.5% 126 12-19-14
4 DarkPolarNight 92.4% 146 12-19-14
5 Jawzun 90.6% 182 12-19-14
6 ike6252 88.8% 216 12-19-14
6 Parax 88.8% 216 12-19-14
8 Dashjump 86.7% 257 12-19-14
9 Avento128bits 86.1% 270 12-19-14
10 DarkspinesSonic 83.2% 326 12-19-14
11 Coolfansonic 81.0% 369 12-19-14
12 THC98 80.4% 381 12-19-14
13 F-Man 79.0% 408 12-19-14
14 Marth 78.1% 424 12-19-14
15 yoshifan 76.6% 453 12-19-14
16 PfoSonic 75.2% 481 12-19-14
17 InferSaime 72.7% 529 12-19-14
18 RPGnutter 72.2% 539 12-19-14
19 HyperSonic7701 70.8% 566 12-19-14
20 Paragod 70.3% 577 12-19-14
21 mike89 70.1% 581 12-19-14
22 frankoredstrato 70.0% 582 12-19-14
23 Groudon199 65.6% 667 12-19-14
24 sonicam 65.4% 671 12-19-14
25 SadisticMystic 64.3% 694 12-19-14
26 Stefan 63.7% 704 12-19-14
27 Diamond 62.5% 729 12-19-14
28 Combo 60.1% 774 12-19-14
29 bertin 59.3% 790 12-19-14
30 drminus 58.1% 814 12-19-14
31 SkyLights 56.9% 837 12-19-14
32 Dawid8404 53.2% 908 12-19-14
33 Fr3nZy 51.0% 952 12-19-14
34 francisco 50.6% 959 12-19-14
35 OmegaDJ 48.8% 994 12-19-14
36 Arch 47.4% 1021 12-19-14
37 P1 Pause 46.2% 1044 12-19-14
38 Omega Rafael Santos 45.4% 1061 12-19-14
39 magnum12 43.6% 1095 12-19-14
40 Andrea Ritsu 43.5% 1097 12-19-14
41 Auriman1 39.6% 1174 12-19-14
42 James_Bertolli 36.7% 1230 12-19-14
43 teamblackarms 35.5% 1252 12-19-14
44 FuzZerd 34.4% 1275 12-19-14
45 Hunters13 33.8% 1285 12-19-14
46 Psymar 33.6% 1290 12-19-14
47 Quartz 33.2% 1297 12-19-14
48 eggFL 33.0% 1301 12-19-14
49 Cyan Ryan 32.7% 1307 12-19-14
50 GerbilSoft 31.8% 1325 12-19-14
51 elecmouse101 31.4% 1333 12-19-14
51 Thorn 31.4% 1333 12-19-14
53 Webber3000 31.0% 1340 12-19-14
54 videogamemaster777 30.8% 1345 12-19-14
55 Mo Player Banned 29.7% 1366 12-19-14
56 Turbos 29.1% 1377 12-19-14
57 Termon 27.7% 1405 12-19-14
58 Dave Cramer 27.0% 1419 12-19-14
59 buddychaos0415 26.3% 1431 12-19-14
60 Flying Fox 26.2% 1434 12-19-14
61 nuckrieg 25.9% 1440 12-19-14
62 Shadow Jacky 24.6% 1465 12-19-14
63 Cream147 22.1% 1513 12-19-14
64 supersonicfan 21.8% 1519 12-19-14
65 MiStEr_ShAoLiN 21.7% 1522 12-19-14
66 NintenDan 21.5% 1526 12-19-14
67 The T 21.3% 1528 12-19-14
68 Cybrax 20.8% 1538 12-19-14
68 itsPersonnal 20.8% 1538 12-19-14
70 supersonic465 20.7% 1540 12-19-14
71 Nimrod 20.2% 1551 12-19-14
72 Aitamen 20.1% 1552 12-19-14
73 Cruizer 19.5% 1564 12-19-14
74 VMU Player Banned 18.1% 1592 12-19-14
75 The Great Lord Mick 17.2% 1608 12-19-14
76 GreatStar 16.4% 1625 12-19-14
77 Questionguy555 15.9% 1633 12-19-14
78 Spinballwizard 15.6% 1639 12-19-14
79 Sondow 14.8% 1655 12-19-14
80 sonicandamy 14.4% 1664 12-19-14
81 GarnetPrincess 13.6% 1678 12-19-14
82 SonicAD 12.6% 1699 12-19-14
83 Don 11.8% 1714 12-19-14
84 Siavash Tazari 11.2% 1725 12-19-14
85 Miles9999 11.0% 1730 12-19-14
86 BigAL49 10.6% 1736 12-19-14
87 Werey 10.3% 1743 12-19-14
88 Cutiefox 10.2% 1744 12-19-14
88 Psyknux 10.2% 1744 12-19-14
90 joecoolgames 10.1% 1746 12-19-14
91 knuckles_sonic8 10.0% 1749 12-19-14
92 mauserman 9.5% 1758 12-19-14
93 EngiNerd 9.1% 1766 12-19-14
94 Sonic Singularity 9.0% 1769 12-19-14
95 dShadow 8.7% 1773 12-19-14
96 Mariobutch 8.4% 1780 12-19-14
97 Shanekilz 8.2% 1783 12-19-14
98 Hipertails12 8.2% 1784 12-19-14
99 Therio 7.7% 1793 12-19-14
100 Mastakirby 7.5% 1797 12-19-14
101 chainchumper 7.3% 1802 12-19-14
102 sonic29887 7.0% 1806 12-19-14
103 TheChaosEmeraIds 6.9% 1808 12-19-14
104 Chao_Fan 6.8% 1810 12-19-14
105 djmat 6.2% 1822 12-19-14
105 tal39h 6.2% 1822 12-19-14
107 Sogeking 5.7% 1833 12-19-14
108 Brian_pso 5.1% 1844 12-19-14
108 Chawkk 5.1% 1844 12-19-14
110 SilvertheAlmighty 4.8% 1849 12-19-14
111 MK 4.6% 1853 12-19-14
112 MastaToken 4.4% 1857 12-19-14
112 SpinDashMaster 4.4% 1857 12-19-14
114 SpiritDragon1995 4.1% 1864 12-19-14
115 Sonique Hedgehog 3.9% 1868 12-19-14
116 KinkyCadence 3.7% 1872 12-19-14
117 Mad Andy 3.6% 1874 12-19-14
118 PsyBorg 3.4% 1876 12-19-14
119 FSSRandomvids 3.2% 1880 12-19-14
120 Xia 3.0% 1885 12-19-14
121 Rolken 2.9% 1886 12-19-14
122 andres430 2.8% 1889 12-19-14
123 dabestgamer 2.4% 1896 12-19-14
124 crazy1993 2.3% 1898 12-19-14
125 shadowblast63 Player Banned 2.3% 1899 12-19-14
126 Illidan 2.1% 1902 12-19-14
127 Richied 2.0% 1904 12-19-14
128 gamer1245 1.9% 1906 12-19-14
129 DanielTheFalcon 1.8% 1908 12-19-14
129 Iwannabelink 1.8% 1908 12-19-14
131 oTaiIilLsS 1.4% 1915 12-19-14
132 soniccoloursunleashed 1.3% 1917 12-19-14
133 niscool 1.3% 1918 12-19-14
134 ieatatsonic 1.1% 1921 12-19-14
135 Redd 1.1% 1922 12-19-14
136 Lil_Dude 0.8% 1928 12-19-14
136 LinksDarkArrows 0.8% 1928 12-19-14
138 Cbwade15 0.4% 1935 12-19-14
139 neaolas 0.3% 1937 12-19-14
140 BlankTH 0.2% 1939 12-19-14
141 Heroes_Hater 0.2% 1940 12-19-14
142 KaM Mark MaK 0.0% 1944 12-19-14
142 MegabombBlade 0.0% 1944 12-19-14

This page is using the New Data Table System. [FUTURE]

Game ID: 3 | Category ID: 6
Hits: 3,756 | Hits This Month: 18 | DB Calls: 24 | Mem Usage: 5.31 MB | Time: 0.19s | Printable

The Sonic Center v3.9
Copyright 2003-2011 by The Sonic Center Team.